Estación Meteorológica Peña el Pijo (Robertgarden) [ 07/24/17 22:45:51 CEST ]

Fecha Hora Presion(HPa) Temp (°C) Humedad % Rocio (°C) Viento ( m/s) Direccion Lluvia 1Hora(mm) Lluvia 24H(mm) LLuvia Total(mm)
2017-May-30 01:01:47 1009.200 13.9 86 11.6       18.13 1408.96
2017-May-30 02:01:46 1008.600 13.4 87 11.3       18.13 1408.96
2017-May-30 03:01:42 1008.300 13.2 87 11.1       18.13 1408.96
2017-May-30 04:01:38 1007.900 12.6 87 10.5       18.13 1408.96
2017-May-30 05:01:40 1007.800 11.9 87 9.8       18.13 1408.96
2017-May-30 06:01:39 1007.900 12.1 88 10.1       18.13 1408.96
2017-May-30 07:02:00 1008.200 12.1 88 10.1       18.13 1408.96
2017-May-30 08:01:47 1008.200 12.8 89 11.0       18.13 1408.96
2017-May-30 09:01:50 1008.200 15.9 88 13.9       18.13 1408.96
2017-May-30 10:01:42 1008.400 20.4 73 15.4       18.13 1408.96
2017-May-30 11:01:41 1008.900 21.0 56 11.9       18.13 1408.96
2017-May-30 12:01:44 1009.000 24.3 46 11.9       18.13 1408.96
2017-May-30 13:01:45 1008.900 26.8 41 12.5       18.13 1408.96
2017-May-30 14:01:41 1008.800 23.2 47 11.2       18.13 1408.96
2017-May-30 15:01:50 1009.200 18.4 64 11.4 2.1 S   18.13 1408.96
2017-May-30 16:01:45 1009.300 16.4 75 12.0       18.13 1408.96
2017-May-30 17:01:44 1009.100 19.1 68 13.0       18.13 1408.96
2017-May-30 18:01:55 1008.900 22.9 58 14.1       4.14 1408.96
2017-May-30 19:01:44 1008.700 22.2 55 12.7 1.7 S   0.51 1408.96
2017-May-30 20:01:56 1008.900 19.2 62 11.7         1408.96
2017-May-30 21:01:45 1009.700 16.8 68 10.9         1408.96
2017-May-30 22:01:40 1010.300 14.9 73 10.1         1408.96
2017-May-30 23:01:40 1010.900 14.8 76 10.6         1408.96

Temperatura Máxima:26°    Temperatura Mínima:11°
Presión Máxima:1010.900 Hpa    Presión Mínima:1007.800 Hpa


Volver